createdAt,value
2022-08-09T00:00:05.864Z,284.33149
2022-08-09T00:06:15.231Z,275.1828
2022-08-09T00:11:24.473Z,292.0226
2022-08-09T00:16:36.644Z,286.22222
2022-08-09T00:21:55.568Z,278.78261
2022-08-09T00:26:59.692Z,292.0226
2022-08-09T00:32:01.752Z,296
2022-08-09T00:37:04.216Z,296
2022-08-09T00:44:16.418Z,317.33333
2022-08-09T00:49:28.090Z,306.35294
2022-08-09T00:54:31.523Z,310.66667
2022-08-09T00:59:46.025Z,288.13408
2022-08-09T01:04:49.189Z,276.97297
2022-08-09T01:09:51.958Z,280.61202
2022-08-09T01:14:53.541Z,268.21053
2022-08-09T01:20:02.696Z,259.89744
2022-08-09T01:25:05.069Z,263.17098
2022-08-09T01:30:08.273Z,258.28571
2022-08-09T01:35:38.319Z,237.33333
2022-08-09T01:40:40.537Z,248.9505
2022-08-09T01:45:46.219Z,240.15385
2022-08-09T01:50:55.232Z,230.51163
2022-08-09T01:55:56.960Z,233.20188
2022-08-09T02:00:58.564Z,226.56881
2022-08-09T02:06:06.285Z,222.73303
2022-08-09T02:11:17.306Z,224
2022-08-09T02:16:19.287Z,217.77778
2022-08-09T02:21:35.592Z,222.73303
2022-08-09T02:26:42.742Z,217.77778
2022-08-09T02:31:44.393Z,226.56881
2022-08-09T02:36:47.015Z,224
2022-08-09T02:41:54.063Z,240.15385
2022-08-09T02:46:56.831Z,264.83333
2022-08-09T02:51:58.489Z,271.65957
2022-08-09T02:57:01.117Z,290.06742
2022-08-09T03:02:16.885Z,294
2022-08-09T03:07:19.026Z,282.46154
2022-08-09T03:12:20.466Z,280.61202
2022-08-09T03:17:26.758Z,259.89744
2022-08-09T03:22:30.359Z,271.65957
2022-08-09T03:27:44.574Z,264.83333
2022-08-09T03:32:46.501Z,255.11111
2022-08-09T03:37:55.835Z,248.9505
2022-08-09T03:42:58.751Z,245.96078
2022-08-09T03:48:00.413Z,252
2022-08-09T03:53:03.182Z,264.83333
2022-08-09T03:58:14.901Z,255.11111
2022-08-09T04:03:24.822Z,259.89744
2022-08-09T04:08:37.341Z,253.54774
2022-08-09T04:14:36.723Z,250.46766
2022-08-09T04:19:51.406Z,271.65957
2022-08-09T04:24:57.854Z,253.54774
2022-08-09T04:29:59.319Z,241.58454
2022-08-09T04:35:01.591Z,243.02913
2022-08-09T04:40:03.435Z,245.96078
2022-08-09T04:45:05.237Z,238.73684
2022-08-09T04:50:06.806Z,241.58454
2022-08-09T04:55:12.827Z,234.56604
2022-08-09T05:00:16.722Z,244.4878
2022-08-09T05:05:18.989Z,230.51163
2022-08-09T05:10:33.571Z,237.33333
2022-08-09T05:15:47.692Z,235.94313
2022-08-09T05:20:49.930Z,224
2022-08-09T05:25:52.714Z,234.56604
2022-08-09T05:30:54.159Z,234.56604
2022-08-09T05:35:57.555Z,252
2022-08-09T05:41:00.097Z,244.4878
2022-08-09T05:46:01.725Z,256.69036
2022-08-09T05:51:30.375Z,255.11111
2022-08-09T05:56:54.837Z,258.28571
2022-08-09T06:01:58.833Z,248.9505
2022-08-09T06:07:00.719Z,266.51309
2022-08-09T06:12:03.178Z,276.97297
2022-08-09T06:17:05.031Z,292.0226
2022-08-09T06:22:15.003Z,261.52577
2022-08-09T06:27:17.190Z,264.83333
2022-08-09T06:32:58.926Z,263.17098
2022-08-09T06:38:47.295Z,306.35294
2022-08-09T06:43:53.203Z,336.35669
2022-08-09T06:48:57.387Z,357.42282
2022-08-09T06:54:01.316Z,377.80282
2022-08-09T07:00:48.647Z,357.42282
2022-08-09T07:06:03.431Z,324.24691
2022-08-09T07:11:06.677Z,414.22901
2022-08-09T07:16:41.087Z,417.84615
2022-08-09T07:21:56.938Z,393.63504
2022-08-09T07:27:00.372Z,294
2022-08-09T07:32:02.108Z,263.17098
2022-08-09T07:37:04.759Z,222.73303
2022-08-09T07:42:06.560Z,158.63415
2022-08-09T07:47:09.854Z,146.63158
2022-08-09T07:52:16.798Z,142.07074
2022-08-09T07:57:19.033Z,150.02007
2022-08-09T08:02:22.485Z,153.52381
2022-08-09T08:08:43.326Z,143.35275
2022-08-09T08:14:04.836Z,145.96721
2022-08-09T08:19:08.041Z,152.81356
2022-08-09T08:24:12.046Z,147.30033
2022-08-09T08:29:20.131Z,147.30033
2022-08-09T08:34:29.104Z,151.40741
2022-08-09T08:39:39.185Z,173.85075
2022-08-09T08:44:41.741Z,192.3871
2022-08-09T08:49:48.290Z,175.57895
2022-08-09T08:54:50.896Z,196.45902
2022-08-09T08:59:57.269Z,176.45283
2022-08-09T09:05:05.994Z,152.81356
2022-08-09T09:10:11.616Z,161.66784
2022-08-09T09:15:13.044Z,150.71141
2022-08-09T09:20:30.449Z,149.33333
2022-08-09T09:26:03.096Z,148.65116
2022-08-09T09:31:17.532Z,182.75969
2022-08-09T09:37:03.854Z,219
2022-08-09T09:42:08.943Z,180.01533
2022-08-09T09:47:12.606Z,167.18841
2022-08-09T09:52:16.396Z,154.23891
2022-08-09T09:58:03.628Z,137.10345
2022-08-09T10:03:14.247Z,180.01533
2022-08-09T10:08:27.566Z,288.13408
2022-08-09T10:13:45.227Z,159.38462
2022-08-09T10:18:51.337Z,200.66667
2022-08-09T10:23:56.250Z,237.33333
2022-08-09T10:29:21.019Z,222.73303
2022-08-09T10:34:37.613Z,210.66667
2022-08-09T10:39:40.690Z,180.92308
2022-08-09T10:44:51.058Z,271.65957
2022-08-09T10:49:54.611Z,387.16547
2022-08-09T10:54:56.498Z,317.33333
2022-08-09T11:00:01.480Z,453.09091
2022-08-09T11:05:03.789Z,560
2022-08-09T11:10:06.380Z,457.33333
2022-08-09T11:15:14.285Z,514.37037
2022-08-09T11:20:22.547Z,436.8
2022-08-09T11:25:26.082Z,599.31915
2022-08-09T11:30:47.929Z,613.56522
2022-08-09T11:35:51.932Z,479.65217
2022-08-09T11:40:54.771Z,566.22222
2022-08-09T11:45:57.628Z,613.56522
2022-08-09T11:52:48.909Z,686.16867
2022-08-09T11:58:06.226Z,644
2022-08-09T12:03:40.957Z,953.83607
2022-08-09T12:08:57.967Z,891.69231
2022-08-09T12:14:10.580Z,1151.84314
2022-08-09T12:19:30.372Z,1176
2022-08-09T12:24:31.804Z,1227.33333
2022-08-09T12:29:44.644Z,1810.66667
2022-08-09T12:34:54.227Z,2068.13793
2022-08-09T12:39:56.195Z,2744
2022-08-09T12:44:59.350Z,2408
2022-08-09T12:50:01.829Z,2225.48148
2022-08-09T12:56:11.562Z,6104
2022-08-09T13:01:18.214Z,8744
2022-08-09T13:06:23.461Z,10210.66667
2022-08-09T13:11:26.284Z,10210.66667
2022-08-09T13:16:27.949Z,15344
2022-08-09T13:22:36.525Z,20477.33333
2022-08-09T13:27:54.913Z,20477.33333
2022-08-09T13:32:58.442Z,15344
2022-08-09T13:38:00.005Z,20477.33333
2022-08-09T13:43:05.259Z,15344
2022-08-09T13:48:11.227Z,20477.33333
2022-08-09T13:53:12.879Z,15344
2022-08-09T13:58:14.581Z,10210.66667
2022-08-09T14:04:02.930Z,12264
2022-08-09T14:09:06.623Z,15344
2022-08-09T14:14:24.006Z,12264
2022-08-09T14:19:33.080Z,10210.66667
2022-08-09T14:24:35.425Z,10210.66667
2022-08-09T14:30:34.749Z,10210.66667
2022-08-09T14:35:52.314Z,6104
2022-08-09T14:41:01.593Z,4050.66667
2022-08-09T14:46:56.604Z,3186.10526
2022-08-09T14:52:06.840Z,2744
2022-08-09T14:57:08.565Z,2408
2022-08-09T15:02:10.145Z,2408
2022-08-09T15:07:14.295Z,1410.66667
2022-08-09T15:12:18.835Z,754.52632
2022-08-09T15:17:21.822Z,677.33333
2022-08-09T15:22:26.156Z,498.95495
2022-08-09T15:27:27.886Z,448.91803
2022-08-09T15:32:33.140Z,414.22901
2022-08-09T15:37:36.933Z,326.6087
2022-08-09T15:42:40.158Z,321.91411
2022-08-09T15:48:02.575Z,310.66667
2022-08-09T15:53:32.706Z,304.23392
2022-08-09T15:59:07.575Z,280.61202
2022-08-09T16:04:13.459Z,255.11111
2022-08-09T16:09:15.549Z,264.83333
2022-08-09T16:14:17.015Z,252
2022-08-09T16:19:25.887Z,247.44828
2022-08-09T16:24:33.715Z,231.85047
2022-08-09T16:29:38.014Z,205.01695
2022-08-09T16:34:55.673Z,176.45283
2022-08-09T16:40:05.008Z,163.21708
2022-08-09T16:45:07.823Z,153.52381
2022-08-09T16:50:32.578Z,138.32177
2022-08-09T16:55:57.842Z,135.90031
2022-08-09T17:01:02.028Z,133.53846
2022-08-09T17:06:28.297Z,133.53846
2022-08-09T17:11:41.234Z,130.66667
2022-08-09T17:16:44.719Z,131.23404
2022-08-09T17:21:47.212Z,120.5043
2022-08-09T17:26:53.514Z,124.64516
2022-08-09T17:31:55.455Z,128.98498
2022-08-09T17:37:02.302Z,128.43114
2022-08-09T17:42:04.975Z,125.17647
2022-08-09T17:47:10.466Z,124.64516
2022-08-09T17:52:22.332Z,124.64516
2022-08-09T17:58:03.262Z,123.06977
2022-08-09T18:03:06.887Z,117.52113
2022-08-09T18:08:11.197Z,123.06977
2022-08-09T18:13:53.677Z,129.54217
2022-08-09T18:19:03.585Z,171.30627
2022-08-09T18:24:12.275Z,168
2022-08-09T18:30:41.260Z,185.56863
2022-08-09T18:35:58.765Z,211.82609
2022-08-09T18:41:03.956Z,240.15385
2022-08-09T18:46:47.641Z,215.36564
2022-08-09T18:51:57.892Z,203.91561
2022-08-09T18:57:05.237Z,206.12766
2022-08-09T19:02:09.258Z,191.38956
2022-08-09T19:07:12.713Z,209.51724
2022-08-09T19:12:20.820Z,214.17544
2022-08-09T19:17:24.418Z,219
2022-08-09T19:22:33.974Z,220.23318
2022-08-09T19:27:37.586Z,196.45902
2022-08-09T19:32:40.760Z,172.14815
2022-08-09T19:37:56.007Z,195.42857
2022-08-09T19:42:59.776Z,190.4
2022-08-09T19:48:05.035Z,184.625
2022-08-09T19:53:07.365Z,186.51969
2022-08-09T19:58:17.922Z,206.12766
2022-08-09T20:04:10.934Z,191.38956
2022-08-09T20:09:44.895Z,187.47826
2022-08-09T20:14:53.162Z,193.39271
2022-08-09T20:19:56.479Z,182.75969
2022-08-09T20:24:58.477Z,195.42857
2022-08-09T20:30:02.760Z,200.66667
2022-08-09T20:35:05.595Z,202.82353
2022-08-09T20:40:15.847Z,207.24786
2022-08-09T20:45:59.345Z,197.49794
2022-08-09T20:51:19.606Z,203.91561
2022-08-09T20:56:21.999Z,205.01695
2022-08-09T21:01:35.199Z,210.66667
2022-08-09T21:06:52.584Z,206.12766
2022-08-09T21:18:21.688Z,182.75969
2022-08-09T21:23:47.886Z,178.22053
2022-08-09T21:28:55.890Z,181.83784
2022-08-09T21:33:58.783Z,178.22053
2022-08-09T21:39:00.369Z,172.99628
2022-08-09T21:44:02.000Z,167.18841
2022-08-09T21:49:05.475Z,164
2022-08-09T21:54:09.200Z,158.63415
2022-08-09T21:59:16.200Z,158.63415
2022-08-09T22:04:17.909Z,157.88889
2022-08-09T22:09:22.276Z,154.9589
2022-08-09T22:14:25.398Z,152.10811
2022-08-09T22:19:58.353Z,140.80511
2022-08-09T22:26:05.977Z,136.5
2022-08-09T22:31:13.919Z,126.24852
2022-08-09T22:36:19.225Z,123.59184
2022-08-09T22:41:21.457Z,117.52113
2022-08-09T22:48:12.788Z,116.54902
2022-08-09T22:53:44.401Z,113.23077
2022-08-09T22:59:05.425Z,111.84741
2022-08-09T23:04:53.710Z,111.84741
2022-08-09T23:09:55.995Z,109.5914
2022-08-09T23:14:57.629Z,106.10526
2022-08-09T23:20:06.825Z,105.25654
2022-08-09T23:25:09.932Z,104.41667
2022-08-09T23:30:11.893Z,101.94872
2022-08-09T23:35:13.432Z,99.94937
2022-08-09T23:40:14.925Z,99.16373
2022-08-09T23:45:36.877Z,97.61596
2022-08-09T23:50:40.103Z,91.72182
2022-08-09T23:55:47.303Z,92.07692
